createdAt,value
2019-05-12T00:01:13.181Z,99.90
2019-05-12T00:03:41.984Z,99.90
2019-05-12T00:06:11.136Z,99.90
2019-05-12T00:08:39.937Z,99.90
2019-05-12T00:11:09.060Z,99.90
2019-05-12T00:13:38.595Z,99.90
2019-05-12T00:16:08.790Z,99.90
2019-05-12T00:18:37.957Z,99.90
2019-05-12T00:21:08.829Z,99.90
2019-05-12T00:23:58.232Z,99.90
2019-05-12T00:26:28.307Z,99.90
2019-05-12T00:28:58.799Z,99.90
2019-05-12T00:31:28.144Z,99.90
2019-05-12T00:33:58.683Z,99.90
2019-05-12T00:36:29.410Z,99.90
2019-05-12T00:38:58.317Z,99.90
2019-05-12T00:41:28.378Z,99.90
2019-05-12T00:43:58.215Z,99.90
2019-05-12T00:46:27.861Z,99.90
2019-05-12T00:49:18.470Z,99.90
2019-05-12T00:51:48.567Z,99.90
2019-05-12T00:54:17.902Z,99.90
2019-05-12T00:56:49.310Z,99.90
2019-05-12T00:59:19.186Z,99.90
2019-05-12T01:01:48.556Z,99.90
2019-05-12T01:04:17.714Z,99.90
2019-05-12T01:06:48.673Z,99.90
2019-05-12T01:09:17.785Z,99.90
2019-05-12T01:11:48.126Z,99.90
2019-05-12T01:14:18.666Z,99.90
2019-05-12T01:16:48.622Z,99.90
2019-05-12T01:19:18.518Z,99.90
2019-05-12T01:22:08.110Z,99.90
2019-05-12T01:24:57.850Z,99.90
2019-05-12T01:27:48.249Z,99.90
2019-05-12T01:30:18.084Z,99.90
2019-05-12T01:32:48.399Z,99.90
2019-05-12T01:35:18.546Z,99.90
2019-05-12T01:37:48.387Z,99.90
2019-05-12T01:40:19.099Z,99.90
2019-05-12T01:42:48.769Z,99.90
2019-05-12T01:45:18.142Z,99.90
2019-05-12T01:47:48.572Z,99.90
2019-05-12T01:50:17.928Z,99.90
2019-05-12T01:52:47.837Z,99.90
2019-05-12T01:55:18.588Z,99.90
2019-05-12T01:57:48.616Z,99.90
2019-05-12T02:00:18.359Z,99.90
2019-05-12T02:02:48.118Z,99.90
2019-05-12T02:05:18.329Z,99.90
2019-05-12T02:07:50.401Z,99.90
2019-05-12T02:10:19.347Z,99.90
2019-05-12T02:12:49.191Z,99.90
2019-05-12T02:15:18.740Z,99.90
2019-05-12T02:17:48.282Z,99.90
2019-05-12T02:20:18.060Z,99.90
2019-05-12T02:22:47.872Z,99.90
2019-05-12T02:25:18.421Z,99.90
2019-05-12T02:27:47.819Z,99.90
2019-05-12T02:30:20.285Z,99.90
2019-05-12T02:32:53.717Z,99.90
2019-05-12T02:35:19.327Z,99.90
2019-05-12T02:37:48.140Z,99.90
2019-05-12T02:40:17.129Z,99.90
2019-05-12T02:42:46.569Z,99.90
2019-05-12T02:45:15.865Z,99.90
2019-05-12T02:47:45.850Z,99.90
2019-05-12T02:50:20.458Z,99.90
2019-05-12T02:52:49.880Z,99.90
2019-05-12T02:55:21.461Z,99.90
2019-05-12T02:57:50.455Z,99.90
2019-05-12T03:00:19.747Z,99.90
2019-05-12T03:02:48.631Z,99.90
2019-05-12T03:05:17.507Z,99.90
2019-05-12T03:07:47.648Z,99.90
2019-05-12T03:10:16.615Z,99.90
2019-05-12T03:12:45.511Z,99.90
2019-05-12T03:15:15.359Z,99.90
2019-05-12T03:17:44.522Z,99.90
2019-05-12T03:20:15.423Z,99.90
2019-05-12T03:22:44.967Z,99.90
2019-05-12T03:25:23.993Z,99.90
2019-05-12T03:27:44.651Z,99.90
2019-05-12T03:30:18.968Z,99.90
2019-05-12T03:32:47.449Z,99.90
2019-05-12T03:35:17.430Z,99.90
2019-05-12T03:37:45.772Z,99.90
2019-05-12T03:40:14.706Z,99.90
2019-05-12T03:42:44.583Z,99.90
2019-05-12T03:45:35.692Z,99.90
2019-05-12T03:48:04.296Z,99.90
2019-05-12T03:50:35.211Z,99.90
2019-05-12T03:53:10.258Z,99.90
2019-05-12T03:55:41.043Z,99.90
2019-05-12T03:58:06.312Z,99.90
2019-05-12T04:00:36.054Z,99.90
2019-05-12T04:03:05.625Z,99.90
2019-05-12T04:05:35.436Z,99.90
2019-05-12T04:08:05.768Z,99.90
2019-05-12T04:10:36.299Z,99.90
2019-05-12T04:13:05.848Z,99.90
2019-05-12T04:15:36.930Z,99.90
2019-05-12T04:18:06.539Z,99.90
2019-05-12T04:20:54.858Z,99.90
2019-05-12T04:23:24.760Z,99.90
2019-05-12T04:26:07.149Z,99.90
2019-05-12T04:28:24.716Z,99.90
2019-05-12T04:30:54.581Z,99.90
2019-05-12T04:33:25.746Z,99.90
2019-05-12T04:35:55.405Z,99.90
2019-05-12T04:38:25.021Z,99.90
2019-05-12T04:40:55.280Z,99.90
2019-05-12T04:43:25.354Z,99.90
2019-05-12T04:45:54.977Z,99.90
2019-05-12T04:48:25.736Z,99.90
2019-05-12T04:50:54.980Z,99.90
2019-05-12T04:53:25.162Z,99.90
2019-05-12T04:56:19.346Z,99.90
2019-05-12T04:58:45.209Z,99.90
2019-05-12T05:01:15.525Z,99.90
2019-05-12T05:03:44.677Z,99.90
2019-05-12T05:06:14.838Z,99.90
2019-05-12T05:08:44.443Z,99.90
2019-05-12T05:11:14.794Z,99.90
2019-05-12T05:13:44.569Z,99.90
2019-05-12T05:16:14.443Z,99.90
2019-05-12T05:18:44.075Z,99.90
2019-05-12T05:21:14.003Z,99.90
2019-05-12T05:23:44.313Z,99.90
2019-05-12T05:26:23.907Z,99.90
2019-05-12T05:28:43.914Z,99.90
2019-05-12T05:31:14.039Z,99.90
2019-05-12T05:33:43.579Z,99.90
2019-05-12T05:36:15.113Z,99.90
2019-05-12T05:38:43.756Z,99.90
2019-05-12T05:41:13.527Z,99.90
2019-05-12T05:43:43.803Z,99.90
2019-05-12T05:46:13.780Z,99.90
2019-05-12T05:48:43.965Z,99.90
2019-05-12T05:51:13.810Z,99.90
2019-05-12T05:53:44.268Z,99.90
2019-05-12T05:56:14.688Z,99.90
2019-05-12T05:58:46.972Z,99.90
2019-05-12T06:01:34.760Z,99.90
2019-05-12T06:04:08.269Z,99.90
2019-05-12T06:06:34.939Z,99.90
2019-05-12T06:09:06.808Z,99.90
2019-05-12T06:11:36.132Z,99.90
2019-05-12T06:14:11.449Z,99.90
2019-05-12T06:16:35.552Z,99.90
2019-05-12T06:19:04.440Z,99.90
2019-05-12T06:21:36.371Z,99.90
2019-05-12T06:24:08.701Z,99.90
2019-05-12T06:26:35.769Z,99.90
2019-05-12T06:29:05.044Z,99.90
2019-05-12T06:31:34.184Z,99.90
2019-05-12T06:34:06.264Z,99.90
2019-05-12T06:36:34.201Z,99.90
2019-05-12T06:39:04.479Z,99.90
2019-05-12T06:41:33.942Z,99.90
2019-05-12T06:44:03.825Z,99.90
2019-05-12T06:46:34.290Z,99.90
2019-05-12T06:49:10.132Z,99.90
2019-05-12T06:51:34.703Z,99.90
2019-05-12T06:54:10.391Z,99.90
2019-05-12T06:56:57.921Z,99.90
2019-05-12T06:59:24.618Z,99.90
2019-05-12T07:01:56.147Z,99.90
2019-05-12T07:04:25.209Z,99.90
2019-05-12T07:07:03.715Z,99.90
2019-05-12T07:09:35.322Z,99.90
2019-05-12T07:12:06.954Z,99.90
2019-05-12T07:14:34.569Z,99.90
2019-05-12T07:17:10.060Z,99.90
2019-05-12T07:19:39.157Z,99.80
2019-05-12T07:22:19.948Z,97.30
2019-05-12T07:24:40.937Z,96.80
2019-05-12T07:27:09.573Z,96.80
2019-05-12T07:29:38.377Z,93.60
2019-05-12T07:32:16.572Z,94.50
2019-05-12T07:34:38.157Z,90.90
2019-05-12T07:37:07.046Z,90.60
2019-05-12T07:39:44.523Z,88.70
2019-05-12T07:42:06.965Z,81.30
2019-05-12T07:44:40.019Z,77.00
2019-05-12T07:47:07.093Z,78.00
2019-05-12T07:49:38.579Z,80.10
2019-05-12T07:52:07.017Z,77.40
2019-05-12T07:54:39.423Z,76.00
2019-05-12T07:57:12.189Z,71.80
2019-05-12T07:59:40.934Z,72.90
2019-05-12T08:02:08.144Z,73.00
2019-05-12T08:04:39.942Z,74.00
2019-05-12T08:07:07.564Z,72.30
2019-05-12T08:09:36.766Z,73.70
2019-05-12T08:12:09.784Z,71.80
2019-05-12T08:14:36.543Z,69.60
2019-05-12T08:17:10.986Z,68.50
2019-05-12T08:19:36.451Z,69.00
2019-05-12T08:22:05.287Z,69.30
2019-05-12T08:24:43.194Z,68.10
2019-05-12T08:27:10.945Z,65.40
2019-05-12T08:29:39.821Z,66.30
2019-05-12T08:32:09.932Z,65.20
2019-05-12T08:34:43.736Z,59.80
2019-05-12T08:37:18.770Z,59.70
2019-05-12T08:39:53.417Z,60.20
2019-05-12T08:42:23.877Z,59.80
2019-05-12T08:44:54.267Z,57.60
2019-05-12T08:47:28.828Z,58.50
2019-05-12T08:49:58.314Z,58.70
2019-05-12T08:52:30.483Z,58.90
2019-05-12T08:55:04.101Z,57.20
2019-05-12T08:57:40.822Z,58.40
2019-05-12T09:00:08.674Z,57.70
2019-05-12T09:02:39.941Z,58.50
2019-05-12T09:05:08.694Z,58.80
2019-05-12T09:07:39.852Z,57.60
2019-05-12T09:10:08.260Z,56.60
2019-05-12T09:12:37.567Z,55.40
2019-05-12T09:15:08.353Z,56.20
2019-05-12T09:17:49.101Z,55.30
2019-05-12T09:20:10.134Z,56.30
2019-05-12T09:22:44.929Z,55.90
2019-05-12T09:25:15.138Z,57.30
2019-05-12T09:27:49.496Z,56.00
2019-05-12T09:30:29.219Z,56.00
2019-05-12T09:32:58.486Z,51.60
2019-05-12T09:35:28.592Z,52.80
2019-05-12T09:37:58.275Z,53.60
2019-05-12T09:40:27.266Z,53.80
2019-05-12T09:43:00.302Z,53.80
2019-05-12T09:45:33.399Z,54.80
2019-05-12T09:48:04.943Z,53.10
2019-05-12T09:50:37.792Z,54.60
2019-05-12T09:53:11.565Z,55.40
2019-05-12T09:55:43.619Z,55.60
2019-05-12T09:58:23.073Z,52.60
2019-05-12T10:00:45.696Z,51.70
2019-05-12T10:03:14.673Z,51.40
2019-05-12T10:05:44.239Z,50.80
2019-05-12T10:08:13.989Z,50.80
2019-05-12T10:10:46.749Z,51.20
2019-05-12T10:13:15.250Z,52.50
2019-05-12T10:15:44.411Z,50.30
2019-05-12T10:18:14.651Z,52.10
2019-05-12T10:20:44.275Z,52.70
2019-05-12T10:23:18.086Z,49.50
2019-05-12T10:25:44.693Z,49.10
2019-05-12T10:28:16.320Z,50.40
2019-05-12T10:30:47.181Z,49.60
2019-05-12T10:33:16.582Z,45.70
2019-05-12T10:35:45.776Z,46.80
2019-05-12T10:38:14.601Z,47.40
2019-05-12T10:40:44.414Z,48.30
2019-05-12T10:43:14.690Z,49.30
2019-05-12T10:45:44.243Z,43.40
2019-05-12T10:48:14.155Z,42.20
2019-05-12T10:50:44.239Z,43.30
2019-05-12T10:53:15.787Z,41.80
2019-05-12T10:55:44.516Z,41.40
2019-05-12T10:58:14.614Z,41.60
2019-05-12T11:00:44.390Z,40.60
2019-05-12T11:03:15.426Z,42.60
2019-05-12T11:05:44.795Z,42.50
2019-05-12T11:08:14.487Z,44.00
2019-05-12T11:10:43.722Z,45.40
2019-05-12T11:13:14.502Z,38.80
2019-05-12T11:15:46.254Z,36.90
2019-05-12T11:18:24.849Z,39.80
2019-05-12T11:20:50.169Z,42.30
2019-05-12T11:23:19.507Z,43.00
2019-05-12T11:25:48.407Z,40.90
2019-05-12T11:28:18.293Z,41.70
2019-05-12T11:30:47.552Z,44.00
2019-05-12T11:33:16.507Z,42.30
2019-05-12T11:35:45.428Z,37.40
2019-05-12T11:38:14.248Z,38.50
2019-05-12T11:40:43.897Z,38.40
2019-05-12T11:43:14.446Z,40.70
2019-05-12T11:45:44.176Z,43.60
2019-05-12T11:48:14.390Z,40.40
2019-05-12T11:50:47.864Z,40.70
2019-05-12T11:53:14.243Z,40.50
2019-05-12T11:55:43.776Z,41.20
2019-05-12T11:58:13.442Z,42.60
2019-05-12T12:00:45.333Z,41.20
2019-05-12T12:03:17.784Z,42.80
2019-05-12T12:05:45.118Z,42.80
2019-05-12T12:08:14.570Z,43.00
2019-05-12T12:10:43.809Z,41.70
2019-05-12T12:13:14.084Z,40.80
2019-05-12T12:15:43.208Z,41.80
2019-05-12T12:18:13.768Z,40.40
2019-05-12T12:20:44.283Z,38.20
2019-05-12T12:23:14.098Z,36.50
2019-05-12T12:25:48.078Z,38.40
2019-05-12T12:28:13.798Z,35.20
2019-05-12T12:30:47.354Z,37.20
2019-05-12T12:33:14.373Z,40.00
2019-05-12T12:35:44.489Z,42.50
2019-05-12T12:38:14.216Z,41.30
2019-05-12T12:40:44.190Z,39.40
2019-05-12T12:43:13.708Z,40.50
2019-05-12T12:46:03.710Z,40.60
2019-05-12T12:48:33.367Z,40.70
2019-05-12T12:51:03.988Z,40.30
2019-05-12T12:53:34.401Z,38.60
2019-05-12T12:56:04.328Z,35.70
2019-05-12T12:58:34.535Z,36.20
2019-05-12T13:01:04.486Z,38.20
2019-05-12T13:03:34.653Z,40.20
2019-05-12T13:06:04.781Z,38.20
2019-05-12T13:08:34.340Z,38.00
2019-05-12T13:11:04.323Z,34.50
2019-05-12T13:13:33.432Z,36.50
2019-05-12T13:16:04.124Z,36.20
2019-05-12T13:18:36.093Z,35.00
2019-05-12T13:21:03.637Z,37.50
2019-05-12T13:23:40.504Z,36.80
2019-05-12T13:26:04.277Z,36.30
2019-05-12T13:28:34.246Z,33.40
2019-05-12T13:31:09.062Z,33.50
2019-05-12T13:33:33.955Z,36.20
2019-05-12T13:36:04.289Z,36.80
2019-05-12T13:38:36.382Z,37.00
2019-05-12T13:41:04.494Z,37.00
2019-05-12T13:43:34.068Z,35.90
2019-05-12T13:46:03.986Z,34.60
2019-05-12T13:48:33.067Z,35.90
2019-05-12T13:51:10.385Z,37.00
2019-05-12T13:53:33.525Z,37.70
2019-05-12T13:56:04.697Z,33.40
2019-05-12T13:58:36.664Z,33.40
2019-05-12T14:01:19.120Z,35.70
2019-05-12T14:03:34.050Z,37.00
2019-05-12T14:06:03.666Z,36.70
2019-05-12T14:08:34.285Z,35.80
2019-05-12T14:11:03.250Z,36.80
2019-05-12T14:13:33.778Z,36.00
2019-05-12T14:16:06.517Z,36.40
2019-05-12T14:18:36.087Z,37.30
2019-05-12T14:21:04.298Z,36.80
2019-05-12T14:23:34.281Z,37.00
2019-05-12T14:26:07.516Z,36.90
2019-05-12T14:28:33.942Z,36.90
2019-05-12T14:31:03.085Z,38.00
2019-05-12T14:33:35.887Z,39.50
2019-05-12T14:36:04.091Z,40.20
2019-05-12T14:38:33.778Z,40.10
2019-05-12T14:41:09.626Z,40.20
2019-05-12T14:43:34.152Z,41.50
2019-05-12T14:46:06.289Z,42.40
2019-05-12T14:48:33.755Z,38.20
2019-05-12T14:51:03.506Z,37.20
2019-05-12T14:53:38.155Z,37.50
2019-05-12T14:56:03.937Z,38.60
2019-05-12T14:58:33.896Z,38.70
2019-05-12T15:01:03.891Z,36.30
2019-05-12T15:03:34.214Z,36.80
2019-05-12T15:06:04.752Z,39.20
2019-05-12T15:08:37.171Z,40.70
2019-05-12T15:11:04.648Z,40.60
2019-05-12T15:13:34.347Z,41.70
2019-05-12T15:16:03.625Z,40.60
2019-05-12T15:18:32.830Z,39.80
2019-05-12T15:21:03.613Z,41.70
2019-05-12T15:23:37.004Z,41.90
2019-05-12T15:26:04.323Z,41.80
2019-05-12T15:28:33.797Z,41.50
2019-05-12T15:31:03.781Z,40.00
2019-05-12T15:33:33.694Z,41.80
2019-05-12T15:36:04.669Z,41.40
2019-05-12T15:38:34.348Z,41.00
2019-05-12T15:41:04.296Z,42.20
2019-05-12T15:43:37.821Z,42.10
2019-05-12T15:46:04.289Z,41.10
2019-05-12T15:48:34.300Z,41.30
2019-05-12T15:51:05.213Z,40.80
2019-05-12T15:53:35.956Z,41.40
2019-05-12T15:56:13.903Z,42.00
2019-05-12T15:58:35.522Z,43.10
2019-05-12T16:01:04.596Z,43.40
2019-05-12T16:03:34.372Z,43.90
2019-05-12T16:06:10.093Z,44.60
2019-05-12T16:08:34.181Z,44.70
2019-05-12T16:11:05.106Z,44.40
2019-05-12T16:13:33.877Z,43.60
2019-05-12T16:16:06.128Z,42.50
2019-05-12T16:18:34.459Z,43.50
2019-05-12T16:21:06.627Z,44.70
2019-05-12T16:23:34.418Z,46.00
2019-05-12T16:26:10.305Z,45.20
2019-05-12T16:28:33.866Z,45.20
2019-05-12T16:31:07.109Z,44.10
2019-05-12T16:33:33.450Z,44.80
2019-05-12T16:36:06.576Z,46.10
2019-05-12T16:38:33.224Z,46.30
2019-05-12T16:41:03.834Z,45.40
2019-05-12T16:43:35.118Z,44.70
2019-05-12T16:46:04.412Z,44.60
2019-05-12T16:48:36.177Z,44.30
2019-05-12T16:51:04.338Z,45.10
2019-05-12T16:53:46.021Z,45.10
2019-05-12T16:56:14.916Z,45.60
2019-05-12T16:58:44.488Z,45.60
2019-05-12T17:01:14.469Z,46.40
2019-05-12T17:03:44.540Z,47.00
2019-05-12T17:06:14.298Z,47.90
2019-05-12T17:08:43.874Z,45.90
2019-05-12T17:11:24.415Z,45.40
2019-05-12T17:13:49.271Z,46.00
2019-05-12T17:16:14.980Z,46.30
2019-05-12T17:18:46.265Z,47.70
2019-05-12T17:21:17.805Z,48.70
2019-05-12T17:23:47.376Z,49.90
2019-05-12T17:26:16.236Z,50.80
2019-05-12T17:28:45.429Z,50.80
2019-05-12T17:31:14.347Z,51.50
2019-05-12T17:33:43.701Z,51.30
2019-05-12T17:36:17.575Z,51.40
2019-05-12T17:38:44.013Z,51.60
2019-05-12T17:41:17.382Z,51.00
2019-05-12T17:43:54.783Z,51.90
2019-05-12T17:46:18.108Z,52.80
2019-05-12T17:48:45.719Z,53.40
2019-05-12T17:51:20.349Z,53.60
2019-05-12T17:53:46.724Z,53.10
2019-05-12T17:56:15.818Z,53.60
2019-05-12T17:58:47.466Z,53.90
2019-05-12T18:01:15.856Z,54.50
2019-05-12T18:03:50.505Z,55.30
2019-05-12T18:06:20.452Z,57.00
2019-05-12T18:08:46.533Z,56.70
2019-05-12T18:11:16.091Z,58.00
2019-05-12T18:13:45.174Z,59.40
2019-05-12T18:16:20.408Z,60.40
2019-05-12T18:18:45.063Z,60.90
2019-05-12T18:21:21.350Z,61.20
2019-05-12T18:23:45.193Z,61.50
2019-05-12T18:26:16.033Z,61.70
2019-05-12T18:28:44.870Z,62.20
2019-05-12T18:31:14.928Z,62.40
2019-05-12T18:33:52.191Z,62.60
2019-05-12T18:36:14.557Z,63.30
2019-05-12T18:38:44.683Z,64.10
2019-05-12T18:41:14.624Z,64.80
2019-05-12T18:43:43.918Z,65.40
2019-05-12T18:46:14.062Z,66.10
2019-05-12T18:48:43.394Z,66.30
2019-05-12T18:51:16.794Z,66.90
2019-05-12T18:53:43.830Z,68.10
2019-05-12T18:56:19.855Z,68.70
2019-05-12T18:59:05.124Z,70.40
2019-05-12T19:01:39.623Z,70.90
2019-05-12T19:04:08.900Z,71.40
2019-05-12T19:06:37.780Z,72.40
2019-05-12T19:09:09.694Z,73.20
2019-05-12T19:11:41.964Z,74.80
2019-05-12T19:14:10.532Z,75.10
2019-05-12T19:16:39.532Z,75.90
2019-05-12T19:19:28.003Z,77.00
2019-05-12T19:22:04.975Z,78.80
2019-05-12T19:24:27.681Z,81.00
2019-05-12T19:26:56.543Z,80.80
2019-05-12T19:29:29.889Z,82.20
2019-05-12T19:32:06.638Z,83.50
2019-05-12T19:34:37.439Z,84.90
